Spar Pyxis — LATQ7 — position and weather

sailwx.info

Track history (hours):
 
Tides and Currents Weather Stations Pressure Air Temp Water Temp Dewpoint Dewpoint Depression Visibility Wind Speed Wind Dir Waves Ship Positions

Spar Pyxis

Last reported at 2018-Feb-21 14:05 UTC. Time now 2018-Feb-22 01:05 UTC.
Position N 01°14' E 103°27'.

Length 200 m; draft 7.5 m.

Type: Cargo ship. MMSI: 257891000.

Date/timePositionNaut miles runAvg speedWind from/ knotsBaromVisibWave heightAir tempDewpointWater temp
2018-Feb-21 14:05N 01°14' E 103°27'214.7
2018-Feb-21 13:54N 01°14' E 103°30'614.6
2018-Feb-21 13:30N 01°12' E 103°35'714.4
2018-Feb-21 13:00N 01°09' E 103°42'713.0
2018-Feb-21 12:30N 01°11' E 103°48'713.0
2018-Feb-21 11:59N 01°13' E 103°55'4 4.8
2018-Feb-21 11:14N 01°17' E 103°55'0 0.6
2018-Feb-21 11:00N 01°17' E 103°55'0 0.1
2018-Feb-21 10:29N 01°17' E 103°55'0 0.0
2018-Feb-21 09:53N 01°17' E 103°55'0 0.0
2018-Feb-21 09:11N 01°17' E 103°55'0 0.0
2018-Feb-21 08:50N 01°17' E 103°55'0 0.0
2018-Feb-21 08:23N 01°17' E 103°55'0 0.0
2018-Feb-21 07:41N 01°17' E 103°55'0 0.0
2018-Feb-21 07:23N 01°17' E 103°55'0 0.0
2018-Feb-21 06:59N 01°17' E 103°55'0 0.1
2018-Feb-21 05:29N 01°17' E 103°55'0 0.0
2018-Feb-21 04:56N 01°17' E 103°55'0 0.0
2018-Feb-21 04:29N 01°17' E 103°55'0 0.0
2018-Feb-21 03:53N 01°17' E 103°55'0 0.0
2018-Feb-21 03:05N 01°17' E 103°55'0 0.0
2018-Feb-21 02:59N 01°17' E 103°55'0 0.0
2018-Feb-21 02:11N 01°17' E 103°55'0 0.1
2018-Feb-21 01:59N 01°17' E 103°55'0 0.0
2018-Feb-21 01:26N 01°17' E 103°55'0 0.0
2018-Feb-21 00:59N 01°17' E 103°55'0 0.1
2018-Feb-21 00:26N 01°17' E 103°55'0 0.0
2018-Feb-20 23:41N 01°17' E 103°55'0 0.2
2018-Feb-20 23:23N 01°17' E 103°55'0 0.1
2018-Feb-20 22:55N 01°17' E 103°55'2 3.9
2018-Feb-20 22:30N 01°16' E 103°56'2 4.0
2018-Feb-20 21:59N 01°15' E 103°58'3 6.7
2018-Feb-20 21:29N 01°13' E 103°55'4 7.2
2018-Feb-20 20:59N 01°11' E 103°52'3 7.1
2018-Feb-20 20:31N 01°10' E 103°49'5 8.8
2018-Feb-20 19:59N 01°07' E 103°45'5 8.8
2018-Feb-20 19:28N 01°04' E 103°42'4 8.3
2018-Feb-20 18:59N 01°03' E 103°38'4 9.0
2018-Feb-20 18:30N 01°05' E 103°34'510.4
2018-Feb-20 18:00N 01°08' E 103°30'4 8.4
2018-Feb-20 17:29N 01°10' E 103°26'6 9.8
2018-Feb-20 16:53N 01°15' E 103°22'  
Track history (hours):
 
Tides and Currents Weather Stations Pressure Air Temp Water Temp Dewpoint Dewpoint Depression Visibility Wind Speed Wind Dir Waves Ship Positions

Spar Pyxis

Last reported at 2018-Feb-21 14:05 UTC. Time now 2018-Feb-22 01:05 UTC.
Position N 01°14' E 103°27'.

Length 200 m; draft 7.5 m.

Type: Cargo ship. MMSI: 257891000.

Date/timePositionNaut miles runAvg speedWind from/ knotsBaromVisibWave heightAir tempDewpointWater temp
2018-Feb-21 14:05N 01°14' E 103°27'214.7
2018-Feb-21 13:54N 01°14' E 103°30'614.6
2018-Feb-21 13:30N 01°12' E 103°35'714.4
2018-Feb-21 13:00N 01°09' E 103°42'713.0
2018-Feb-21 12:30N 01°11' E 103°48'713.0
2018-Feb-21 11:59N 01°13' E 103°55'4 4.8
2018-Feb-21 11:14N 01°17' E 103°55'0 0.6
2018-Feb-21 11:00N 01°17' E 103°55'0 0.1
2018-Feb-21 10:29N 01°17' E 103°55'0 0.0
2018-Feb-21 09:53N 01°17' E 103°55'0 0.0
2018-Feb-21 09:11N 01°17' E 103°55'0 0.0
2018-Feb-21 08:50N 01°17' E 103°55'0 0.0
2018-Feb-21 08:23N 01°17' E 103°55'0 0.0
2018-Feb-21 07:41N 01°17' E 103°55'0 0.0
2018-Feb-21 07:23N 01°17' E 103°55'0 0.0
2018-Feb-21 06:59N 01°17' E 103°55'0 0.1
2018-Feb-21 05:29N 01°17' E 103°55'0 0.0
2018-Feb-21 04:56N 01°17' E 103°55'0 0.0
2018-Feb-21 04:29N 01°17' E 103°55'0 0.0
2018-Feb-21 03:53N 01°17' E 103°55'0 0.0
2018-Feb-21 03:05N 01°17' E 103°55'0 0.0
2018-Feb-21 02:59N 01°17' E 103°55'0 0.0
2018-Feb-21 02:11N 01°17' E 103°55'0 0.1
2018-Feb-21 01:59N 01°17' E 103°55'0 0.0
2018-Feb-21 01:26N 01°17' E 103°55'0 0.0
2018-Feb-21 00:59N 01°17' E 103°55'0 0.1
2018-Feb-21 00:26N 01°17' E 103°55'0 0.0
2018-Feb-20 23:41N 01°17' E 103°55'0 0.2
2018-Feb-20 23:23N 01°17' E 103°55'0 0.1
2018-Feb-20 22:55N 01°17' E 103°55'2 3.9
2018-Feb-20 22:30N 01°16' E 103°56'2 4.0
2018-Feb-20 21:59N 01°15' E 103°58'3 6.7
2018-Feb-20 21:29N 01°13' E 103°55'4 7.2
2018-Feb-20 20:59N 01°11' E 103°52'3 7.1
2018-Feb-20 20:31N 01°10' E 103°49'5 8.8
2018-Feb-20 19:59N 01°07' E 103°45'5 8.8
2018-Feb-20 19:28N 01°04' E 103°42'4 8.3
2018-Feb-20 18:59N 01°03' E 103°38'4 9.0
2018-Feb-20 18:30N 01°05' E 103°34'510.4
2018-Feb-20 18:00N 01°08' E 103°30'4 8.4
2018-Feb-20 17:29N 01°10' E 103°26'6 9.8
2018-Feb-20 16:53N 01°15' E 103°22'  

Dump ship's entire track history